Terminal Aerodrome Forecast
Issued by NWS

Home | Current Version | Previous Version | Text Only | Print | Product List | Glossary On
Versions: 1 2 3 4 5 6 7 8 9 10 11 12 13 14 15 16 17
000
FTUS43 KGRB 182300
TAFAUW
TAF
KAUW 182337Z 1900/1924 17005KT P6SM SCT020
     FM190900 17007KT 5SM BR FEW100 SCT250
     FM191400 19010G16KT P6SM SCT100 BKN250=

USA.gov is the U.S. government's official web portal to all federal, state and local government web resources and services.